Main page
METAR-TAF:

METAR-TAF

Airports :

Cluj International Airport

Cluj-Napoca, Romania

latitude: 46-47N, longitude: 023-34E, elevation: 315 m

Current weather observation

The report was made 13 minutes ago, at 05:30 UTC
Wind 2 kt from variable directions
Temperature -6°C
Humidity 86%
Pressure 1027 hPa
Visibility: 1500 m
Overcast at a height of 200 ft
mist

METAR: LRCL 060530Z VRB02KT 1500 BR OVC002 M06/M08 Q1027 R07/15//95

Time: 07:43 (05:43 UTC)

Forecast

The report was made 43 minutes ago, at 05:00 UTC
Forecast valid from 06 at 06 UTC to 06 at 15 UTC
Wind 4 kt from variable directions
Visibility: 1500 m
Overcast at a height of 200 ft
mist
Temporary
from 06 at 06 UTC to 06 at 07 UTC
Visibility: 0800 m
freezing fog
Becoming
from 06 at 07 UTC to 06 at 09 UTC
Visibility 10 km or more
no clouds below 1500 m and no cumulonimbus

TAF: LRCL 060500Z 0606/0615 VRB04KT 1500 BR OVC002 TEMPO 0606/0607 0800 FZFG BECMG 0607/0609 CAVOK

Weather observations and forecasts of more than 4000 airports (METAR and TAF reports).

The available stations are represented by yellow and red dots on the map.

Hover mouse over dot to see the name of the station.

Then click to see weather observations and forecasts.

To change the map : click on the green buttons with a black cross to zoom in, on the green button with a dash to zoom out, or on the green arrows for adjacent maps.


METAR-TAF: